createdAt,value
2023-02-03T00:00:55.856Z,1.14
2023-02-03T00:05:59.374Z,1.15
2023-02-03T00:11:04.274Z,1.07
2023-02-03T00:16:08.400Z,1.06
2023-02-03T00:21:11.827Z,1.02
2023-02-03T00:26:18.195Z,1.06
2023-02-03T00:31:25.504Z,1.11
2023-02-03T00:36:29.139Z,1.07
2023-02-03T00:41:33.979Z,1.15
2023-02-03T00:46:37.406Z,1.01
2023-02-03T00:51:40.850Z,0.92
2023-02-03T00:56:45.791Z,0.95
2023-02-03T01:01:51.149Z,0.95
2023-02-03T01:06:57.606Z,0.75
2023-02-03T01:12:02.610Z,0.76
2023-02-03T01:17:06.456Z,0.79
2023-02-03T01:22:09.846Z,0.72
2023-02-03T01:27:14.934Z,0.67
2023-02-03T01:32:18.430Z,0.68
2023-02-03T01:37:21.805Z,0.70
2023-02-03T01:42:26.906Z,0.68
2023-02-03T01:47:34.806Z,0.68
2023-02-03T01:52:40.520Z,0.63
2023-02-03T01:57:50.153Z,0.56
2023-02-03T02:02:54.351Z,0.52
2023-02-03T02:08:00.602Z,0.59
2023-02-03T02:13:07.091Z,0.59
2023-02-03T02:18:25.266Z,0.61
2023-02-03T02:24:00.673Z,0.59
2023-02-03T02:29:28.841Z,0.51
2023-02-03T02:34:43.523Z,0.57
2023-02-03T02:39:54.951Z,0.48
2023-02-03T02:45:06.708Z,0.50
2023-02-03T02:50:16.129Z,0.53
2023-02-03T02:55:24.844Z,0.61
2023-02-03T03:00:32.368Z,0.46
2023-02-03T03:05:38.089Z,0.51
2023-02-03T03:10:43.326Z,0.48
2023-02-03T03:15:47.356Z,0.51
2023-02-03T03:20:54.720Z,0.48
2023-02-03T03:26:06.054Z,0.42
2023-02-03T03:31:09.729Z,0.43
2023-02-03T03:36:23.676Z,0.39
2023-02-03T03:41:35.073Z,0.34
2023-02-03T03:46:44.795Z,0.40
2023-02-03T03:51:54.386Z,0.29
2023-02-03T03:57:02.144Z,0.25
2023-02-03T04:02:05.875Z,0.29
2023-02-03T04:07:10.765Z,0.28
2023-02-03T04:12:21.396Z,0.29
2023-02-03T04:17:25.109Z,0.42
2023-02-03T04:22:29.862Z,0.48
2023-02-03T04:27:33.748Z,0.31
2023-02-03T04:32:37.473Z,0.23
2023-02-03T04:37:42.866Z,0.18
2023-02-03T04:42:46.256Z,0.22
2023-02-03T04:47:54.499Z,0.29
2023-02-03T04:53:00.585Z,0.16
2023-02-03T04:58:04.037Z,0.17
2023-02-03T05:03:07.741Z,0.10
2023-02-03T05:08:12.574Z,0.19
2023-02-03T05:13:16.422Z,0.06
2023-02-03T05:18:19.869Z,-0.03
2023-02-03T05:23:24.705Z,0.02
2023-02-03T05:28:28.093Z,0.00
2023-02-03T05:33:31.912Z,0.03
2023-02-03T05:38:36.668Z,-0.03
2023-02-03T05:43:40.088Z,0.09
2023-02-03T05:48:43.457Z,0.03
2023-02-03T05:53:48.611Z,-0.02
2023-02-03T05:58:54.028Z,-0.11
2023-02-03T06:03:57.824Z,0.23
2023-02-03T06:09:04.795Z,0.53
2023-02-03T06:14:08.427Z,0.88
2023-02-03T06:19:11.956Z,0.93
2023-02-03T06:24:16.817Z,0.98
2023-02-03T06:29:20.327Z,1.15
2023-02-03T06:34:23.662Z,1.29
2023-02-03T06:39:28.852Z,1.47
2023-02-03T06:44:32.632Z,1.67
2023-02-03T06:49:36.059Z,1.80
2023-02-03T06:54:40.979Z,1.97
2023-02-03T06:59:44.391Z,2.14
2023-02-03T07:04:47.772Z,2.21
2023-02-03T07:09:52.847Z,2.46
2023-02-03T07:14:56.703Z,2.63
2023-02-03T07:20:00.458Z,2.66
2023-02-03T07:25:05.731Z,2.78
2023-02-03T07:30:10.608Z,2.92
2023-02-03T07:35:14.014Z,2.83
2023-02-03T07:40:19.652Z,3.11
2023-02-03T07:45:24.924Z,3.46
2023-02-03T07:50:28.767Z,3.64
2023-02-03T07:55:34.458Z,3.90
2023-02-03T08:00:37.936Z,3.92
2023-02-03T08:05:41.397Z,4.01
2023-02-03T08:10:46.482Z,4.23
2023-02-03T08:15:50.055Z,4.27
2023-02-03T08:20:53.498Z,4.35
2023-02-03T08:25:58.331Z,4.63
2023-02-03T08:31:02.213Z,4.76
2023-02-03T08:36:06.293Z,5.12
2023-02-03T08:41:13.497Z,5.40
2023-02-03T08:46:16.946Z,6.07
2023-02-03T08:51:20.953Z,5.82
2023-02-03T08:56:27.567Z,5.84
2023-02-03T09:01:31.288Z,5.97
2023-02-03T09:06:34.727Z,6.67
2023-02-03T09:11:39.945Z,6.90
2023-02-03T09:16:43.524Z,6.71
2023-02-03T09:21:49.177Z,7.03
2023-02-03T09:26:55.199Z,7.29
2023-02-03T09:31:58.673Z,7.04
2023-02-03T09:37:02.324Z,7.43
2023-02-03T09:42:28.595Z,7.71
2023-02-03T09:47:37.751Z,7.86
2023-02-03T09:52:44.332Z,8.21
2023-02-03T09:57:57.056Z,8.45
2023-02-03T10:03:07.342Z,9.54
2023-02-03T10:08:23.280Z,10.82
2023-02-03T10:13:36.667Z,10.61
2023-02-03T10:18:45.959Z,11.00
2023-02-03T10:23:51.330Z,10.21
2023-02-03T10:28:58.048Z,11.47
2023-02-03T10:34:06.206Z,11.80
2023-02-03T10:39:21.561Z,11.05
2023-02-03T10:44:33.367Z,9.73
2023-02-03T10:49:36.963Z,10.18
2023-02-03T10:54:40.689Z,10.98
2023-02-03T10:59:47.722Z,10.04
2023-02-03T11:05:10.984Z,9.93
2023-02-03T11:10:36.204Z,11.03
2023-02-03T11:15:46.158Z,11.80
2023-02-03T11:20:49.624Z,10.42
2023-02-03T11:25:53.848Z,10.81
2023-02-03T11:30:59.928Z,9.88
2023-02-03T11:36:05.558Z,9.62
2023-02-03T11:41:18.504Z,11.07
2023-02-03T11:46:23.737Z,9.71
2023-02-03T11:51:41.180Z,9.47
2023-02-03T11:57:01.743Z,8.93
2023-02-03T12:02:33.833Z,7.96
2023-02-03T12:08:02.043Z,8.71
2023-02-03T12:13:18.303Z,8.80
2023-02-03T12:18:33.753Z,8.77
2023-02-03T12:23:48.055Z,8.19
2023-02-03T12:28:57.645Z,8.05
2023-02-03T12:34:13.020Z,7.70
2023-02-03T12:39:23.159Z,7.66
2023-02-03T12:44:32.558Z,7.59
2023-02-03T12:49:43.581Z,7.37
2023-02-03T12:54:53.835Z,7.68
2023-02-03T13:00:19.912Z,7.67
2023-02-03T13:05:30.212Z,7.73
2023-02-03T13:10:39.909Z,7.63
2023-02-03T13:15:48.211Z,7.54
2023-02-03T13:20:53.660Z,7.43
2023-02-03T13:26:14.775Z,7.28
2023-02-03T13:31:33.361Z,7.25
2023-02-03T13:37:13.833Z,7.23
2023-02-03T13:42:26.527Z,7.26
2023-02-03T13:47:32.909Z,7.28
2023-02-03T13:52:43.316Z,7.19
2023-02-03T13:57:53.673Z,7.00
2023-02-03T14:02:58.099Z,6.95
2023-02-03T14:08:36.633Z,6.86
2023-02-03T14:13:41.540Z,6.76
2023-02-03T14:18:46.617Z,6.72
2023-02-03T14:24:00.300Z,6.75
2023-02-03T14:29:06.253Z,6.61
2023-02-03T14:34:15.349Z,6.52
2023-02-03T14:40:15.802Z,6.50
2023-02-03T14:45:33.177Z,6.38
2023-02-03T14:50:53.485Z,6.21
2023-02-03T14:56:11.589Z,5.98
2023-02-03T15:02:08.053Z,5.83
2023-02-03T15:07:11.426Z,5.39
2023-02-03T15:12:18.283Z,5.46
2023-02-03T15:17:25.859Z,5.49
2023-02-03T15:22:31.167Z,5.37
2023-02-03T15:27:34.826Z,5.24
2023-02-03T15:32:45.979Z,5.04
2023-02-03T15:37:55.106Z,4.95
2023-02-03T15:43:01.929Z,5.01
2023-02-03T15:48:13.693Z,4.93
2023-02-03T15:53:22.184Z,4.71
2023-02-03T15:58:29.277Z,4.65
2023-02-03T16:03:41.732Z,4.47
2023-02-03T16:08:48.227Z,4.19
2023-02-03T16:13:52.315Z,4.09
2023-02-03T16:19:00.150Z,4.25
2023-02-03T16:24:05.268Z,4.35
2023-02-03T16:29:32.826Z,4.31
2023-02-03T16:34:55.208Z,4.05
2023-02-03T16:40:17.115Z,3.85
2023-02-03T16:45:37.927Z,3.72
2023-02-03T16:50:54.146Z,3.62
2023-02-03T16:55:59.226Z,3.46
2023-02-03T17:01:05.666Z,3.46
2023-02-03T17:06:13.039Z,3.47
2023-02-03T17:11:18.445Z,3.43
2023-02-03T17:16:24.668Z,3.14
2023-02-03T17:21:31.225Z,2.86
2023-02-03T17:26:34.971Z,2.56
2023-02-03T17:31:38.391Z,2.50
2023-02-03T17:36:43.230Z,2.46
2023-02-03T17:57:51.451Z,2.52
2023-02-03T18:02:56.117Z,2.59
2023-02-03T18:08:08.908Z,2.76
2023-02-03T18:13:23.638Z,2.77
2023-02-03T18:18:28.157Z,3.06
2023-02-03T18:23:33.371Z,3.17
2023-02-03T18:28:37.086Z,3.07
2023-02-03T18:33:40.709Z,3.03
2023-02-03T18:38:47.400Z,2.73
2023-02-03T18:43:51.426Z,2.82
2023-02-03T18:48:56.219Z,2.90
2023-02-03T18:54:01.280Z,2.70
2023-02-03T18:59:10.096Z,2.48
2023-02-03T19:04:14.230Z,2.65
2023-02-03T19:09:23.787Z,2.74
2023-02-03T19:14:28.502Z,2.43
2023-02-03T19:19:31.989Z,2.36
2023-02-03T19:24:36.843Z,2.53
2023-02-03T19:29:40.329Z,2.46
2023-02-03T19:34:43.722Z,2.49
2023-02-03T19:39:50.475Z,2.42
2023-02-03T19:44:53.968Z,2.39
2023-02-03T19:50:01.719Z,2.44
2023-02-03T19:55:08.944Z,2.40
2023-02-03T20:00:15.062Z,2.35
2023-02-03T20:05:20.299Z,2.52
2023-02-03T20:10:26.476Z,2.34
2023-02-03T20:15:29.996Z,2.34
2023-02-03T20:20:34.281Z,2.28
2023-02-03T20:25:39.225Z,2.21
2023-02-03T20:30:43.417Z,2.07
2023-02-03T20:35:46.851Z,2.19
2023-02-03T20:40:51.987Z,1.91
2023-02-03T20:45:55.865Z,2.04
2023-02-03T20:50:59.262Z,1.74
2023-02-03T20:56:08.473Z,1.88
2023-02-03T21:01:16.555Z,1.73
2023-02-03T21:06:21.532Z,1.63
2023-02-03T21:11:27.512Z,1.46
2023-02-03T21:16:39.022Z,1.41
2023-02-03T21:21:44.033Z,1.38
2023-02-03T21:26:49.722Z,1.34
2023-02-03T21:31:54.521Z,1.33
2023-02-03T21:36:59.114Z,1.14
2023-02-03T21:42:18.784Z,0.86
2023-02-03T21:47:22.549Z,0.91
2023-02-03T21:52:26.055Z,0.88
2023-02-03T21:57:30.893Z,0.96
2023-02-03T22:02:56.592Z,0.93
2023-02-03T22:08:00.096Z,0.91
2023-02-03T22:13:04.875Z,0.84
2023-02-03T22:18:08.625Z,0.87
2023-02-03T22:23:12.344Z,0.89
2023-02-03T22:28:17.638Z,0.88
2023-02-03T22:33:21.139Z,0.95
2023-02-03T22:38:24.767Z,0.94
2023-02-03T22:43:31.151Z,0.95
2023-02-03T22:48:35.244Z,1.06
2023-02-03T22:53:39.917Z,0.96
2023-02-03T22:58:44.891Z,1.00
2023-02-03T23:03:48.220Z,1.07
2023-02-03T23:08:51.729Z,0.96
2023-02-03T23:13:56.632Z,1.00
2023-02-03T23:18:59.996Z,1.04
2023-02-03T23:24:03.396Z,1.16
2023-02-03T23:29:08.205Z,1.17
2023-02-03T23:34:29.150Z,1.29
2023-02-03T23:39:32.501Z,1.24
2023-02-03T23:44:37.316Z,1.17
2023-02-03T23:49:40.713Z,1.19
2023-02-03T23:54:44.157Z,1.11
2023-02-03T23:59:49.314Z,1.07
